createdAt,value
2022-10-19T00:01:21.755Z,87.51
2022-10-19T00:03:52.595Z,87.74
2022-10-19T00:06:27.128Z,87.69
2022-10-19T00:08:58.107Z,87.75
2022-10-19T00:11:27.118Z,87.58
2022-10-19T00:13:56.968Z,87.61
2022-10-19T00:16:26.982Z,87.72
2022-10-19T00:18:58.042Z,87.63
2022-10-19T00:21:26.509Z,87.61
2022-10-19T00:23:54.469Z,87.59
2022-10-19T00:26:22.038Z,87.58
2022-10-19T00:28:50.075Z,87.56
2022-10-19T00:31:18.091Z,87.63
2022-10-19T00:33:47.058Z,87.50
2022-10-19T00:36:19.433Z,87.64
2022-10-19T00:38:47.433Z,87.68
2022-10-19T00:41:16.361Z,87.78
2022-10-19T00:44:05.332Z,87.63
2022-10-19T00:46:36.271Z,87.54
2022-10-19T00:49:10.928Z,87.75
2022-10-19T00:51:48.897Z,87.58
2022-10-19T00:54:18.806Z,87.64
2022-10-19T00:56:49.853Z,87.55
2022-10-19T00:59:22.134Z,87.57
2022-10-19T01:01:50.399Z,87.70
2022-10-19T01:04:21.014Z,87.60
2022-10-19T01:06:48.744Z,87.68
2022-10-19T01:09:16.466Z,87.55
2022-10-19T01:11:53.225Z,87.59
2022-10-19T01:15:03.192Z,87.61
2022-10-19T01:17:36.715Z,87.76
2022-10-19T01:20:34.044Z,87.63
2022-10-19T01:23:20.441Z,87.58
2022-10-19T01:26:12.965Z,87.58
2022-10-19T01:28:54.155Z,87.76
2022-10-19T01:31:34.704Z,87.52
2022-10-19T01:34:08.940Z,87.76
2022-10-19T01:36:44.589Z,87.64
2022-10-19T01:39:18.025Z,87.69
2022-10-19T01:42:00.428Z,87.95
2022-10-19T01:44:35.920Z,87.94
2022-10-19T01:47:06.649Z,88.07
2022-10-19T01:49:49.606Z,88.30
2022-10-19T01:52:20.935Z,88.55
2022-10-19T01:54:52.183Z,88.45
2022-10-19T01:57:25.977Z,88.37
2022-10-19T01:59:55.798Z,88.47
2022-10-19T02:02:26.321Z,88.43
2022-10-19T02:04:57.352Z,88.51
2022-10-19T02:07:25.950Z,88.58
2022-10-19T02:09:53.618Z,88.49
2022-10-19T02:12:22.598Z,88.82
2022-10-19T02:14:56.610Z,89.01
2022-10-19T02:17:28.981Z,88.47
2022-10-19T02:19:57.977Z,88.70
2022-10-19T02:22:25.582Z,88.74
2022-10-19T02:24:53.374Z,88.74
2022-10-19T02:27:22.027Z,88.76
2022-10-19T02:29:49.944Z,88.76
2022-10-19T02:32:17.606Z,88.67
2022-10-19T02:34:45.393Z,88.67
2022-10-19T02:37:13.047Z,88.57
2022-10-19T02:39:40.996Z,88.85
2022-10-19T02:42:34.787Z,88.73
2022-10-19T02:45:19.737Z,88.68
2022-10-19T02:47:56.069Z,89.00
2022-10-19T02:50:24.359Z,88.74
2022-10-19T02:52:52.062Z,88.73
2022-10-19T02:55:19.802Z,88.71
2022-10-19T02:57:47.460Z,88.73
2022-10-19T03:00:15.163Z,88.83
2022-10-19T03:02:42.784Z,88.85
2022-10-19T03:05:10.391Z,89.11
2022-10-19T03:07:38.007Z,88.99
2022-10-19T03:10:06.460Z,88.91
2022-10-19T03:12:34.115Z,88.79
2022-10-19T03:15:01.787Z,88.77
2022-10-19T03:17:29.464Z,88.74
2022-10-19T03:19:57.052Z,88.88
2022-10-19T03:22:24.783Z,89.06
2022-10-19T03:24:52.447Z,89.27
2022-10-19T03:27:20.184Z,88.98
2022-10-19T03:29:47.869Z,89.36
2022-10-19T03:32:15.632Z,89.33
2022-10-19T03:34:43.297Z,89.11
2022-10-19T03:37:13.349Z,89.16
2022-10-19T03:39:41.379Z,89.25
2022-10-19T03:42:08.954Z,89.31
2022-10-19T03:44:36.519Z,89.21
2022-10-19T03:47:04.261Z,89.42
2022-10-19T03:49:32.966Z,89.14
2022-10-19T03:52:02.325Z,89.37
2022-10-19T03:54:29.915Z,89.14
2022-10-19T03:56:57.907Z,89.34
2022-10-19T03:59:25.495Z,89.35
2022-10-19T04:01:53.067Z,89.08
2022-10-19T04:04:20.955Z,89.23
2022-10-19T04:06:50.143Z,89.16
2022-10-19T04:09:19.656Z,88.92
2022-10-19T04:11:47.829Z,89.06
2022-10-19T04:14:26.897Z,88.92
2022-10-19T04:17:02.102Z,88.98
2022-10-19T04:19:31.395Z,88.87
2022-10-19T04:21:59.615Z,88.95
2022-10-19T04:24:28.072Z,88.74
2022-10-19T04:26:56.525Z,88.85
2022-10-19T04:29:29.504Z,88.76
2022-10-19T04:31:59.435Z,88.63
2022-10-19T04:34:27.495Z,88.49
2022-10-19T04:36:55.292Z,88.74
2022-10-19T04:39:23.020Z,88.53
2022-10-19T04:41:50.615Z,88.51
2022-10-19T04:44:18.383Z,88.38
2022-10-19T04:46:46.137Z,88.63
2022-10-19T04:49:16.498Z,88.49
2022-10-19T04:51:47.125Z,88.05
2022-10-19T04:54:15.020Z,88.20
2022-10-19T04:56:42.753Z,87.85
2022-10-19T04:59:10.729Z,88.16
2022-10-19T05:01:40.424Z,88.01
2022-10-19T05:04:10.823Z,88.15
2022-10-19T05:06:38.762Z,87.88
2022-10-19T05:09:06.707Z,87.85
2022-10-19T05:11:34.364Z,87.86
2022-10-19T05:14:01.963Z,87.96
2022-10-19T05:16:29.816Z,87.99
2022-10-19T05:18:59.046Z,87.58
2022-10-19T05:21:28.998Z,87.53
2022-10-19T05:23:57.658Z,87.50
2022-10-19T05:26:27.322Z,87.70
2022-10-19T05:28:57.694Z,87.55
2022-10-19T05:31:28.258Z,87.72
2022-10-19T05:33:56.514Z,87.43
2022-10-19T05:36:27.688Z,87.45
2022-10-19T05:38:57.806Z,87.25
2022-10-19T05:41:26.294Z,87.37
2022-10-19T05:43:56.002Z,87.19
2022-10-19T05:46:24.937Z,87.57
2022-10-19T05:48:52.990Z,87.52
2022-10-19T05:51:22.377Z,87.24
2022-10-19T05:53:50.324Z,87.25
2022-10-19T05:56:22.684Z,87.27
2022-10-19T05:58:51.483Z,86.94
2022-10-19T06:01:20.268Z,87.28
2022-10-19T06:03:52.127Z,87.02
2022-10-19T06:06:20.199Z,87.19
2022-10-19T06:08:49.068Z,87.32
2022-10-19T06:11:19.616Z,87.02
2022-10-19T06:13:50.638Z,87.05
2022-10-19T06:16:19.982Z,87.30
2022-10-19T06:18:47.705Z,86.98
2022-10-19T06:21:18.858Z,86.95
2022-10-19T06:23:51.028Z,86.97
2022-10-19T06:26:19.504Z,87.25
2022-10-19T06:28:48.922Z,87.30
2022-10-19T06:31:17.385Z,87.35
2022-10-19T06:33:48.575Z,87.06
2022-10-19T06:36:20.535Z,87.05
2022-10-19T06:38:49.775Z,87.25
2022-10-19T06:41:17.939Z,87.12
2022-10-19T06:43:50.318Z,87.45
2022-10-19T06:46:20.687Z,87.15
2022-10-19T06:48:57.031Z,87.34
2022-10-19T06:51:26.737Z,87.13
2022-10-19T06:53:57.047Z,87.46
2022-10-19T06:56:26.801Z,87.16
2022-10-19T06:58:56.916Z,87.28
2022-10-19T07:01:25.303Z,87.03
2022-10-19T07:03:54.139Z,87.27
2022-10-19T07:06:22.117Z,87.31
2022-10-19T07:08:49.887Z,87.26
2022-10-19T07:11:19.909Z,87.22
2022-10-19T07:13:47.578Z,87.03
2022-10-19T07:16:20.781Z,87.10
2022-10-19T07:18:51.479Z,86.94
2022-10-19T07:21:21.272Z,87.07
2022-10-19T07:23:49.540Z,87.16
2022-10-19T07:26:27.977Z,86.83
2022-10-19T07:28:56.890Z,86.78
2022-10-19T07:31:26.413Z,86.80
2022-10-19T07:33:59.825Z,86.66
2022-10-19T07:36:29.472Z,86.82
2022-10-19T07:38:57.753Z,86.61
2022-10-19T07:41:26.512Z,86.51
2022-10-19T07:43:55.142Z,86.39
2022-10-19T07:46:25.491Z,86.36
2022-10-19T07:48:53.842Z,86.37
2022-10-19T07:51:22.785Z,86.19
2022-10-19T07:53:50.893Z,85.99
2022-10-19T07:56:21.769Z,86.08
2022-10-19T07:58:51.377Z,85.90
2022-10-19T08:01:24.925Z,86.08
2022-10-19T08:04:43.350Z,86.21
2022-10-19T08:06:42.261Z,86.19
2022-10-19T08:09:15.595Z,86.26
2022-10-19T08:11:50.609Z,86.47
2022-10-19T08:14:18.354Z,86.48
2022-10-19T08:16:46.011Z,86.40
2022-10-19T08:19:15.518Z,86.53
2022-10-19T08:21:46.450Z,86.36
2022-10-19T08:24:16.365Z,86.41
2022-10-19T08:26:44.728Z,86.57
2022-10-19T08:29:15.176Z,86.82
2022-10-19T08:31:44.658Z,86.74
2022-10-19T08:34:13.328Z,86.85
2022-10-19T08:39:12.591Z,87.15
2022-10-19T08:41:40.344Z,87.09
2022-10-19T08:44:26.942Z,87.10
2022-10-19T08:47:30.759Z,87.21
2022-10-19T08:49:59.353Z,87.37
2022-10-19T08:52:37.433Z,87.28
2022-10-19T08:55:16.482Z,87.50
2022-10-19T08:57:53.359Z,87.48
2022-10-19T09:01:08.408Z,87.59
2022-10-19T09:03:56.301Z,87.73
2022-10-19T09:06:44.998Z,87.66
2022-10-19T09:09:14.187Z,87.94
2022-10-19T09:11:48.905Z,87.64
2022-10-19T09:14:22.870Z,87.72
2022-10-19T09:16:50.797Z,88.03
2022-10-19T09:19:25.942Z,87.81
2022-10-19T09:21:58.200Z,87.77
2022-10-19T09:25:08.560Z,88.09
2022-10-19T09:27:40.679Z,87.86
2022-10-19T09:30:20.220Z,87.70
2022-10-19T09:32:52.011Z,87.74
2022-10-19T09:35:43.443Z,87.65
2022-10-19T09:38:16.719Z,87.79
2022-10-19T09:40:44.696Z,87.56
2022-10-19T09:43:22.196Z,87.70
2022-10-19T09:46:02.605Z,87.72
2022-10-19T09:48:39.712Z,87.60
2022-10-19T09:51:15.998Z,87.57
2022-10-19T09:53:50.704Z,87.60
2022-10-19T09:56:28.218Z,87.52
2022-10-19T09:58:58.454Z,87.55
2022-10-19T10:01:39.903Z,87.62
2022-10-19T10:04:15.926Z,87.52
2022-10-19T10:06:46.713Z,87.64
2022-10-19T10:09:21.504Z,87.54
2022-10-19T10:11:51.478Z,87.61
2022-10-19T10:14:40.113Z,87.57
2022-10-19T10:17:16.287Z,87.50
2022-10-19T10:19:59.285Z,87.60
2022-10-19T10:22:29.632Z,87.26
2022-10-19T10:24:58.093Z,87.16
2022-10-19T10:27:37.463Z,86.89
2022-10-19T10:30:09.793Z,87.06
2022-10-19T10:32:45.863Z,86.94
2022-10-19T10:35:24.890Z,86.87
2022-10-19T10:37:53.285Z,87.00
2022-10-19T10:40:31.661Z,87.18
2022-10-19T10:43:06.691Z,86.98
2022-10-19T10:45:41.444Z,86.93
2022-10-19T10:48:32.252Z,86.90
2022-10-19T10:51:01.219Z,86.92
2022-10-19T10:53:41.279Z,86.89
2022-10-19T10:56:29.959Z,86.80
2022-10-19T10:59:00.666Z,86.85
2022-10-19T11:01:35.335Z,86.98
2022-10-19T11:04:11.106Z,86.72
2022-10-19T11:06:47.285Z,86.69
2022-10-19T11:09:43.353Z,86.61
2022-10-19T11:12:16.239Z,86.68
2022-10-19T11:14:46.019Z,86.75
2022-10-19T11:17:21.395Z,86.62
2022-10-19T11:19:51.373Z,86.68
2022-10-19T11:22:29.906Z,86.75
2022-10-19T11:25:19.269Z,86.43
2022-10-19T11:28:25.582Z,86.55
2022-10-19T11:31:14.615Z,86.55
2022-10-19T11:34:18.028Z,86.36
2022-10-19T11:37:00.105Z,86.40
2022-10-19T11:39:52.731Z,86.36
2022-10-19T11:45:23.995Z,84.83
2022-10-19T11:48:10.191Z,84.65
2022-10-19T11:50:58.579Z,84.25
2022-10-19T11:53:53.370Z,83.36
2022-10-19T11:56:39.170Z,83.98
2022-10-19T11:59:34.343Z,83.45
2022-10-19T12:02:30.724Z,82.81
2022-10-19T12:05:13.236Z,82.28
2022-10-19T12:07:46.786Z,82.50
2022-10-19T12:10:37.621Z,80.79
2022-10-19T12:13:21.908Z,78.32
2022-10-19T12:15:54.207Z,79.10
2022-10-19T12:18:40.794Z,78.71
2022-10-19T12:21:14.907Z,78.44
2022-10-19T12:23:46.777Z,78.36
2022-10-19T12:28:58.291Z,77.63
2022-10-19T12:31:27.975Z,77.92
2022-10-19T12:34:22.641Z,78.21
2022-10-19T12:36:55.244Z,78.39
2022-10-19T12:39:34.944Z,77.39
2022-10-19T12:42:12.074Z,76.58
2022-10-19T12:44:58.890Z,76.97
2022-10-19T12:47:26.856Z,75.96
2022-10-19T12:49:55.988Z,76.01
2022-10-19T12:52:48.480Z,75.16
2022-10-19T12:55:16.069Z,75.20
2022-10-19T12:57:50.293Z,74.96
2022-10-19T13:00:20.729Z,74.96
2022-10-19T13:02:58.547Z,74.70
2022-10-19T13:05:28.888Z,73.43
2022-10-19T13:07:57.270Z,72.81
2022-10-19T13:10:27.491Z,72.26
2022-10-19T13:12:55.791Z,71.83
2022-10-19T13:15:50.966Z,71.67
2022-10-19T13:19:01.179Z,71.54
2022-10-19T13:22:01.266Z,72.26
2022-10-19T13:24:37.059Z,72.38
2022-10-19T13:27:04.746Z,72.45
2022-10-19T13:29:39.003Z,72.12
2022-10-19T13:32:35.096Z,71.32
2022-10-19T13:35:35.344Z,70.82
2022-10-19T13:38:24.312Z,70.55
2022-10-19T13:40:52.067Z,70.17
2022-10-19T13:43:19.733Z,69.70
2022-10-19T13:46:10.315Z,69.42
2022-10-19T13:48:37.864Z,69.65
2022-10-19T13:51:23.156Z,69.04
2022-10-19T13:53:55.314Z,68.71
2022-10-19T13:59:47.887Z,68.45
2022-10-19T14:02:34.210Z,67.18
2022-10-19T14:08:28.565Z,65.26
2022-10-19T14:11:02.823Z,65.56
2022-10-19T14:13:31.466Z,65.85
2022-10-19T14:16:03.254Z,65.33
2022-10-19T14:18:34.295Z,65.37
2022-10-19T14:21:08.281Z,64.82
2022-10-19T14:23:41.863Z,65.50
2022-10-19T14:26:20.413Z,64.80
2022-10-19T14:28:54.065Z,63.79
2022-10-19T14:31:31.604Z,63.98
2022-10-19T14:34:02.645Z,64.18
2022-10-19T14:36:45.376Z,64.57
2022-10-19T14:39:24.082Z,64.22
2022-10-19T14:41:55.849Z,64.34
2022-10-19T14:44:39.705Z,63.70
2022-10-19T14:47:30.618Z,64.12
2022-10-19T14:49:58.447Z,64.04
2022-10-19T14:52:34.376Z,63.20
2022-10-19T14:55:12.634Z,63.66
2022-10-19T14:57:45.809Z,63.60
2022-10-19T15:00:22.511Z,63.78
2022-10-19T15:03:12.650Z,64.31
2022-10-19T15:05:48.322Z,64.47
2022-10-19T15:08:30.679Z,64.63
2022-10-19T15:10:58.692Z,64.72
2022-10-19T15:13:31.783Z,65.12
2022-10-19T15:15:59.516Z,64.86
2022-10-19T15:18:50.897Z,65.35
2022-10-19T15:21:20.818Z,65.01
2022-10-19T15:23:50.597Z,65.26
2022-10-19T15:26:24.194Z,65.40
2022-10-19T15:28:53.781Z,64.97
2022-10-19T15:31:27.161Z,65.31
2022-10-19T15:33:57.601Z,65.38
2022-10-19T15:36:26.386Z,65.35
2022-10-19T15:39:24.632Z,65.05
2022-10-19T15:41:51.733Z,65.39
2022-10-19T15:44:44.051Z,65.85
2022-10-19T15:47:20.639Z,65.52
2022-10-19T15:49:54.328Z,66.21
2022-10-19T15:52:25.571Z,66.11
2022-10-19T15:54:55.872Z,66.01
2022-10-19T15:57:31.136Z,65.86
2022-10-19T16:00:01.387Z,66.38
2022-10-19T16:02:29.113Z,66.38
2022-10-19T16:04:56.788Z,66.31
2022-10-19T16:07:27.568Z,66.29
2022-10-19T16:09:55.474Z,66.81
2022-10-19T16:12:24.870Z,66.87
2022-10-19T16:14:55.934Z,66.52
2022-10-19T16:17:23.746Z,66.81
2022-10-19T16:19:51.422Z,67.19
2022-10-19T16:22:19.102Z,67.17
2022-10-19T16:24:46.711Z,67.11
2022-10-19T16:27:16.389Z,67.13
2022-10-19T16:29:44.690Z,67.33
2022-10-19T16:32:12.328Z,67.06
2022-10-19T16:34:41.299Z,67.33
2022-10-19T16:37:08.878Z,67.28
2022-10-19T16:39:36.516Z,66.99
2022-10-19T16:42:04.143Z,67.43
2022-10-19T16:44:31.725Z,67.37
2022-10-19T16:46:59.702Z,67.25
2022-10-19T16:49:27.472Z,67.25
2022-10-19T16:51:57.395Z,67.22
2022-10-19T16:54:26.935Z,67.16
2022-10-19T16:56:55.829Z,66.99
2022-10-19T16:59:23.641Z,67.42
2022-10-19T17:01:51.462Z,67.50
2022-10-19T17:04:19.475Z,67.29
2022-10-19T17:06:47.365Z,67.36
2022-10-19T17:09:41.290Z,67.78
2022-10-19T17:12:02.911Z,67.47
2022-10-19T17:14:30.495Z,67.48
2022-10-19T17:16:58.112Z,67.64
2022-10-19T17:19:25.917Z,67.55
2022-10-19T17:21:56.554Z,67.67
2022-10-19T17:24:24.201Z,67.55
2022-10-19T17:26:52.818Z,67.62
2022-10-19T17:29:22.147Z,67.65
2022-10-19T17:31:50.781Z,67.75
2022-10-19T17:34:18.781Z,67.71
2022-10-19T17:36:47.215Z,68.04
2022-10-19T17:39:24.416Z,68.01
2022-10-19T17:41:55.240Z,67.95
2022-10-19T17:44:23.103Z,68.08
2022-10-19T17:46:50.774Z,68.05
2022-10-19T17:49:19.041Z,68.08
2022-10-19T17:51:46.943Z,68.19
2022-10-19T17:54:14.968Z,68.19
2022-10-19T17:56:45.401Z,68.29
2022-10-19T17:59:14.399Z,68.32
2022-10-19T18:01:42.432Z,68.46
2022-10-19T18:04:10.344Z,68.57
2022-10-19T18:06:38.672Z,68.47
2022-10-19T18:09:08.999Z,68.69
2022-10-19T18:11:42.840Z,68.57
2022-10-19T18:14:12.620Z,68.55
2022-10-19T18:16:45.663Z,68.86
2022-10-19T18:19:15.429Z,69.04
2022-10-19T18:21:45.028Z,69.08
2022-10-19T18:24:19.461Z,69.05
2022-10-19T18:26:49.243Z,69.13
2022-10-19T18:29:20.473Z,69.57
2022-10-19T18:31:51.621Z,69.55
2022-10-19T18:34:22.299Z,69.37
2022-10-19T18:36:50.974Z,69.43
2022-10-19T18:39:19.059Z,69.59
2022-10-19T18:41:48.460Z,69.39
2022-10-19T18:44:16.146Z,69.39
2022-10-19T18:46:44.602Z,69.52
2022-10-19T18:49:12.884Z,69.58
2022-10-19T18:51:40.533Z,69.74
2022-10-19T18:54:08.664Z,69.75
2022-10-19T18:56:36.797Z,69.98
2022-10-19T18:59:06.993Z,69.54
2022-10-19T19:01:34.705Z,70.32
2022-10-19T19:04:09.081Z,70.20
2022-10-19T19:06:38.117Z,70.22
2022-10-19T19:09:11.243Z,70.23
2022-10-19T19:11:41.178Z,70.18
2022-10-19T19:14:15.908Z,70.52
2022-10-19T19:16:45.012Z,70.60
2022-10-19T19:19:15.523Z,70.61
2022-10-19T19:21:44.703Z,70.53
2022-10-19T19:24:15.868Z,70.66
2022-10-19T19:26:48.416Z,70.91
2022-10-19T19:29:17.158Z,70.81
2022-10-19T19:31:44.996Z,70.84
2022-10-19T19:34:12.942Z,71.29
2022-10-19T19:36:48.320Z,71.22
2022-10-19T19:39:20.886Z,71.11
2022-10-19T19:41:49.734Z,71.25
2022-10-19T19:44:18.682Z,71.48
2022-10-19T19:46:47.062Z,71.57
2022-10-19T19:49:21.437Z,71.41
2022-10-19T19:51:50.169Z,71.28
2022-10-19T19:54:19.492Z,71.62
2022-10-19T19:56:51.074Z,71.06
